Pensacola, Florida
Current Conditions -  °F | °C
As of 10:53 AM on Tuesday 27 Jan 2015 (Local Time) from KPNS Reporting Station
Clear Clear  
Wind Chill: 61°   Ceiling: Unl
Heat Index: 61°   Visibility: 10mi
Dew Point: 37°   Wind: 14mph
Humidity: 41%   Direction: 340°NNW
Pressure: 30.07"   Gusts: NA
Location:  30.42°N, 87.22°W
Report Text: KPNS 271653Z 34012KT 10SM CLR 16/03 A3007 RMK AO2 SLP184 T01610028
Loading
Personal Weather Stations






























Interactive Weather Map New forecast layout! Learn more

10-Day Weather Forecast

Advertisements
Track Severe Weather on mobile